createdAt,value
2022-12-20T00:02:20.075Z,10.80
2022-12-20T00:04:49.950Z,10.80
2022-12-20T00:07:19.879Z,10.80
2022-12-20T00:09:49.907Z,10.80
2022-12-20T00:12:19.923Z,10.90
2022-12-20T00:14:49.963Z,10.80
2022-12-20T00:17:19.892Z,10.90
2022-12-20T00:19:49.874Z,10.80
2022-12-20T00:22:19.816Z,10.80
2022-12-20T00:24:50.096Z,10.80
2022-12-20T00:27:19.915Z,10.80
2022-12-20T00:29:50.304Z,10.70
2022-12-20T00:32:20.167Z,10.80
2022-12-20T00:34:50.077Z,10.80
2022-12-20T00:37:20.021Z,10.80
2022-12-20T00:39:50.027Z,10.80
2022-12-20T00:42:19.915Z,10.70
2022-12-20T00:44:49.815Z,10.70
2022-12-20T00:47:19.876Z,10.80
2022-12-20T00:49:49.748Z,10.80
2022-12-20T00:52:19.614Z,10.80
2022-12-20T00:54:49.536Z,10.80
2022-12-20T00:57:19.469Z,10.70
2022-12-20T00:59:49.369Z,10.70
2022-12-20T01:02:19.527Z,10.70
2022-12-20T01:04:52.185Z,10.70
2022-12-20T01:07:22.175Z,10.70
2022-12-20T01:09:52.773Z,10.70
2022-12-20T01:12:22.627Z,10.70
2022-12-20T01:14:52.475Z,10.60
2022-12-20T01:17:22.487Z,10.70
2022-12-20T01:19:52.402Z,10.70
2022-12-20T01:22:22.296Z,10.70
2022-12-20T01:24:52.305Z,10.70
2022-12-20T01:27:22.205Z,10.70
2022-12-20T01:29:52.287Z,10.70
2022-12-20T01:32:22.211Z,10.80
2022-12-20T01:34:55.445Z,10.90
2022-12-20T01:37:25.460Z,10.80
2022-12-20T01:39:55.382Z,10.90
2022-12-20T01:42:25.402Z,10.80
2022-12-20T01:44:59.713Z,10.90
2022-12-20T01:47:32.364Z,10.90
2022-12-20T01:50:04.051Z,11.10
2022-12-20T01:52:45.564Z,11.00
2022-12-20T01:55:28.070Z,11.10
2022-12-20T01:58:04.265Z,11.10
2022-12-20T02:00:34.407Z,11.10
2022-12-20T02:03:09.572Z,11.20
2022-12-20T02:05:43.145Z,11.20
2022-12-20T02:08:16.439Z,11.30
2022-12-20T02:11:21.874Z,11.40
2022-12-20T02:14:23.413Z,11.50
2022-12-20T02:17:15.137Z,11.60
2022-12-20T02:20:13.699Z,11.70
2022-12-20T02:23:08.396Z,11.80
2022-12-20T02:26:14.425Z,11.90
2022-12-20T02:29:03.808Z,12.00
2022-12-20T02:31:43.226Z,12.20
2022-12-20T02:34:14.465Z,12.30
2022-12-20T02:36:44.341Z,12.30
2022-12-20T02:39:18.048Z,12.40
2022-12-20T02:41:55.271Z,12.40
2022-12-20T02:44:44.484Z,12.50
2022-12-20T02:47:20.360Z,12.50
2022-12-20T02:49:51.617Z,12.60
2022-12-20T02:52:23.957Z,12.70
2022-12-20T02:54:53.901Z,12.80
2022-12-20T02:57:34.571Z,12.80
2022-12-20T03:00:08.356Z,12.90
2022-12-20T03:02:55.740Z,13.00
2022-12-20T03:05:28.105Z,13.10
2022-12-20T03:07:58.368Z,13.20
2022-12-20T03:10:28.717Z,13.20
2022-12-20T03:12:58.496Z,13.30
2022-12-20T03:15:28.380Z,13.40
2022-12-20T03:17:58.469Z,13.50
2022-12-20T03:20:28.357Z,13.50
2022-12-20T03:22:58.179Z,13.60
2022-12-20T03:25:28.417Z,13.60
2022-12-20T03:27:58.329Z,13.70
2022-12-20T03:30:28.165Z,13.90
2022-12-20T03:32:58.071Z,13.90
2022-12-20T03:35:28.141Z,14.00
2022-12-20T03:37:58.504Z,14.10
2022-12-20T03:40:28.352Z,14.10
2022-12-20T03:42:58.198Z,14.10
2022-12-20T03:45:28.490Z,14.20
2022-12-20T03:47:58.339Z,14.20
2022-12-20T03:50:28.288Z,14.30
2022-12-20T03:52:58.329Z,14.40
2022-12-20T03:55:28.316Z,14.40
2022-12-20T03:57:58.304Z,14.50
2022-12-20T04:00:28.294Z,14.60
2022-12-20T04:02:58.315Z,14.60
2022-12-20T04:05:28.415Z,14.70
2022-12-20T04:07:58.528Z,14.80
2022-12-20T04:10:28.415Z,14.90
2022-12-20T04:12:58.237Z,15.00
2022-12-20T04:15:28.570Z,15.10
2022-12-20T04:17:58.423Z,15.20
2022-12-20T04:20:28.535Z,15.30
2022-12-20T04:22:58.633Z,15.30
2022-12-20T04:25:28.549Z,15.50
2022-12-20T04:27:58.416Z,15.60
2022-12-20T04:30:28.459Z,15.70
2022-12-20T04:32:58.458Z,15.80
2022-12-20T04:35:28.456Z,15.90
2022-12-20T04:37:59.225Z,16.00
2022-12-20T04:40:29.103Z,16.00
2022-12-20T04:42:59.111Z,16.20
2022-12-20T04:45:28.980Z,16.20
2022-12-20T04:48:00.386Z,16.30
2022-12-20T04:50:39.665Z,16.30
2022-12-20T04:53:22.545Z,16.30
2022-12-20T04:55:52.755Z,16.50
2022-12-20T04:58:22.702Z,16.60
2022-12-20T05:00:55.443Z,16.60
2022-12-20T05:03:29.462Z,16.70
2022-12-20T05:05:59.776Z,16.80
2022-12-20T05:08:29.731Z,16.80
2022-12-20T05:10:59.882Z,16.80
2022-12-20T05:13:30.302Z,16.90
2022-12-20T05:16:00.182Z,17.00
2022-12-20T05:18:31.123Z,17.10
2022-12-20T05:21:14.246Z,17.10
2022-12-20T05:23:54.541Z,17.20
2022-12-20T05:26:26.247Z,17.40
2022-12-20T05:28:56.613Z,17.40
2022-12-20T05:31:25.983Z,17.40
2022-12-20T05:33:56.169Z,17.40
2022-12-20T05:36:26.250Z,17.30
2022-12-20T05:39:03.622Z,17.40
2022-12-20T05:41:35.243Z,17.60
2022-12-20T05:44:04.476Z,17.60
2022-12-20T05:46:35.086Z,17.70
2022-12-20T05:49:05.484Z,17.80
2022-12-20T05:51:34.725Z,17.80
2022-12-20T05:54:04.642Z,17.80
2022-12-20T05:56:34.835Z,17.70
2022-12-20T06:03:18.469Z,17.90
2022-12-20T06:05:48.854Z,17.90
2022-12-20T06:26:56.279Z,18.10
2022-12-20T07:02:37.644Z,18.80
2022-12-20T07:12:35.340Z,18.90
2022-12-20T07:15:05.264Z,18.90
2022-12-20T07:17:35.335Z,19.10
2022-12-20T07:20:12.722Z,19.10
2022-12-20T07:22:43.676Z,19.10
2022-12-20T07:25:13.296Z,19.10
2022-12-20T07:27:43.788Z,19.10
2022-12-20T07:30:14.647Z,19.10
2022-12-20T07:32:44.603Z,19.20
2022-12-20T07:35:16.333Z,19.20
2022-12-20T07:41:28.313Z,19.40
2022-12-20T07:44:00.853Z,19.40
2022-12-20T07:46:32.314Z,19.40
2022-12-20T07:49:02.256Z,19.40
2022-12-20T07:51:40.341Z,19.50
2022-12-20T08:05:15.893Z,19.60
2022-12-20T08:34:14.258Z,19.60
2022-12-20T08:36:45.255Z,19.60
2022-12-20T08:39:31.292Z,19.60
2022-12-20T08:46:25.363Z,19.60
2022-12-20T08:48:55.601Z,19.50
2022-12-20T09:06:17.443Z,19.10
2022-12-20T10:15:42.632Z,18.20
2022-12-20T10:18:34.316Z,18.10
2022-12-20T10:21:25.260Z,18.00
2022-12-20T11:02:00.485Z,17.30
2022-12-20T11:04:37.666Z,17.30
2022-12-20T11:07:30.030Z,17.20
2022-12-20T11:49:00.218Z,16.30
2022-12-20T11:51:50.120Z,16.20
2022-12-20T11:54:34.466Z,16.20
2022-12-20T11:57:17.020Z,16.20
2022-12-20T11:59:55.307Z,16.20
2022-12-20T12:03:00.977Z,16.20
2022-12-20T12:05:43.529Z,16.10
2022-12-20T12:08:24.037Z,16.10
2022-12-20T12:11:02.709Z,16.10
2022-12-20T12:13:37.887Z,16.10
2022-12-20T12:16:20.136Z,16.00
2022-12-20T12:18:51.034Z,16.00
2022-12-20T12:21:31.323Z,16.00
2022-12-20T12:24:16.925Z,15.90
2022-12-20T12:26:47.102Z,15.90
2022-12-20T12:29:19.400Z,15.90
2022-12-20T12:32:13.771Z,15.90
2022-12-20T12:35:13.225Z,15.90
2022-12-20T12:38:06.598Z,15.80
2022-12-20T12:41:03.297Z,15.80
2022-12-20T12:43:49.067Z,15.80
2022-12-20T12:46:31.753Z,15.80
2022-12-20T12:49:24.798Z,15.70
2022-12-20T12:52:01.944Z,15.70
2022-12-20T12:54:39.026Z,15.60
2022-12-20T12:57:24.678Z,15.60
2022-12-20T12:59:54.946Z,15.60
2022-12-20T13:02:29.840Z,15.60
2022-12-20T13:05:03.274Z,15.60
2022-12-20T13:07:47.878Z,15.60
2022-12-20T13:10:56.703Z,15.50
2022-12-20T13:13:26.940Z,15.50
2022-12-20T13:16:09.037Z,15.50
2022-12-20T13:18:39.203Z,15.40
2022-12-20T13:21:30.583Z,15.40
2022-12-20T13:24:36.495Z,15.40
2022-12-20T13:27:33.615Z,15.40
2022-12-20T13:30:26.912Z,15.40
2022-12-20T13:33:00.730Z,15.40
2022-12-20T13:35:34.880Z,15.40
2022-12-20T13:38:07.808Z,15.30
2022-12-20T13:40:58.387Z,15.30
2022-12-20T13:43:38.153Z,15.30
2022-12-20T13:46:21.953Z,15.30
2022-12-20T13:48:57.908Z,15.30
2022-12-20T13:51:30.895Z,15.30
2022-12-20T13:54:03.892Z,15.20
2022-12-20T13:56:54.786Z,15.10
2022-12-20T13:59:29.292Z,15.10
2022-12-20T14:02:04.042Z,15.10
2022-12-20T14:04:58.251Z,15.00
2022-12-20T14:07:29.509Z,15.00
2022-12-20T14:10:03.232Z,15.00
2022-12-20T14:12:36.970Z,15.00
2022-12-20T14:15:27.437Z,14.90
2022-12-20T14:17:57.774Z,14.90
2022-12-20T14:20:34.019Z,14.90
2022-12-20T14:23:23.378Z,14.90
2022-12-20T14:26:00.538Z,14.90
2022-12-20T14:28:43.552Z,14.90
2022-12-20T14:31:34.198Z,14.90
2022-12-20T14:34:08.998Z,14.90
2022-12-20T14:36:41.692Z,14.80
2022-12-20T14:39:31.969Z,14.80
2022-12-20T14:42:04.023Z,14.80
2022-12-20T14:44:34.976Z,14.80
2022-12-20T14:47:20.567Z,14.80
2022-12-20T14:50:13.111Z,14.70
2022-12-20T14:52:44.718Z,14.70
2022-12-20T14:55:26.902Z,14.70
2022-12-20T14:57:58.694Z,14.70
2022-12-20T15:00:33.230Z,14.70
2022-12-20T15:03:14.540Z,14.70
2022-12-20T15:05:49.754Z,14.70
2022-12-20T15:08:34.637Z,14.70
2022-12-20T15:11:22.807Z,14.70
2022-12-20T15:13:57.214Z,14.60
2022-12-20T15:16:29.867Z,14.60
2022-12-20T15:19:03.466Z,14.50
2022-12-20T15:21:39.124Z,14.50
2022-12-20T15:24:14.685Z,14.40
2022-12-20T15:26:44.708Z,14.40
2022-12-20T15:29:22.062Z,14.30
2022-12-20T15:31:53.601Z,14.30
2022-12-20T15:34:35.527Z,14.30
2022-12-20T15:37:06.713Z,14.20
2022-12-20T15:39:37.758Z,14.30
2022-12-20T15:42:09.338Z,14.30
2022-12-20T15:44:40.391Z,14.20
2022-12-20T15:47:15.162Z,14.20
2022-12-20T15:49:50.158Z,14.10
2022-12-20T15:52:24.653Z,14.10
2022-12-20T15:54:54.433Z,14.00
2022-12-20T15:57:24.344Z,14.00
2022-12-20T16:00:01.146Z,14.00
2022-12-20T16:02:34.251Z,14.00
2022-12-20T16:05:04.455Z,13.90
2022-12-20T16:07:34.348Z,14.00
2022-12-20T16:10:04.305Z,13.90
2022-12-20T16:12:38.771Z,13.90
2022-12-20T16:15:09.796Z,13.80
2022-12-20T16:17:39.883Z,13.80
2022-12-20T16:20:11.638Z,13.70
2022-12-20T16:22:41.605Z,13.70
2022-12-20T16:25:30.192Z,13.70
2022-12-20T16:28:00.287Z,13.70
2022-12-20T16:30:30.502Z,13.70
2022-12-20T16:33:01.528Z,13.70
2022-12-20T16:35:36.042Z,13.70
2022-12-20T16:38:07.085Z,13.70
2022-12-20T16:40:36.998Z,13.70
2022-12-20T16:43:06.871Z,13.70
2022-12-20T16:45:36.753Z,13.60
2022-12-20T16:48:06.726Z,13.60
2022-12-20T16:50:43.124Z,13.60
2022-12-20T16:53:17.084Z,13.60
2022-12-20T16:55:47.491Z,13.50
2022-12-20T16:58:17.359Z,13.50
2022-12-20T17:00:47.264Z,13.50
2022-12-20T17:03:17.348Z,13.50
2022-12-20T17:05:47.426Z,13.50
2022-12-20T17:11:03.779Z,13.40
2022-12-20T17:13:34.836Z,13.40
2022-12-20T17:16:04.757Z,13.30
2022-12-20T17:18:34.642Z,13.30
2022-12-20T17:21:08.400Z,13.30
2022-12-20T17:23:39.569Z,13.40
2022-12-20T17:26:10.582Z,13.40
2022-12-20T17:28:40.421Z,13.30
2022-12-20T17:31:30.360Z,13.20
2022-12-20T17:34:01.640Z,13.20
2022-12-20T17:36:37.634Z,13.10
2022-12-20T17:39:07.909Z,13.10
2022-12-20T17:41:38.589Z,13.10
2022-12-20T17:44:08.379Z,13.10
2022-12-20T17:46:38.208Z,13.00
2022-12-20T17:49:08.275Z,13.00
2022-12-20T17:51:38.160Z,13.00
2022-12-20T17:54:08.405Z,13.00
2022-12-20T17:56:38.824Z,12.90
2022-12-20T17:59:09.278Z,13.00
2022-12-20T18:01:39.503Z,13.00
2022-12-20T18:04:12.061Z,13.00
2022-12-20T18:06:44.760Z,13.00
2022-12-20T18:09:19.075Z,12.90
2022-12-20T18:11:49.319Z,12.90
2022-12-20T18:14:19.189Z,12.90
2022-12-20T18:16:49.201Z,12.80
2022-12-20T18:19:22.198Z,12.80
2022-12-20T18:21:52.139Z,12.80
2022-12-20T18:24:23.080Z,12.80
2022-12-20T18:26:53.008Z,12.70
2022-12-20T18:29:23.132Z,12.70
2022-12-20T18:31:53.220Z,12.60
2022-12-20T18:34:24.301Z,12.60
2022-12-20T18:36:54.223Z,12.70
2022-12-20T18:39:24.243Z,12.60
2022-12-20T18:41:54.119Z,12.60
2022-12-20T18:44:23.996Z,12.60
2022-12-20T18:46:59.741Z,12.70
2022-12-20T18:49:30.080Z,12.60
2022-12-20T18:52:01.915Z,12.50
2022-12-20T18:54:32.044Z,12.50
2022-12-20T18:57:01.963Z,12.50
2022-12-20T18:59:32.391Z,12.50
2022-12-20T19:02:02.455Z,12.60
2022-12-20T19:04:32.538Z,12.50
2022-12-20T19:07:02.442Z,12.50
2022-12-20T19:09:32.379Z,12.50
2022-12-20T19:12:02.307Z,12.50
2022-12-20T19:14:32.164Z,12.40
2022-12-20T19:17:02.233Z,12.40
2022-12-20T19:19:32.234Z,12.40
2022-12-20T19:22:02.192Z,12.30
2022-12-20T19:24:32.189Z,12.30
2022-12-20T19:27:02.196Z,12.30
2022-12-20T19:29:32.045Z,12.30
2022-12-20T19:32:01.822Z,12.20
2022-12-20T19:34:33.297Z,12.20
2022-12-20T19:37:03.152Z,12.20
2022-12-20T19:39:33.234Z,12.20
2022-12-20T19:44:53.244Z,12.20
2022-12-20T19:47:23.250Z,12.20
2022-12-20T19:49:53.271Z,12.10
2022-12-20T19:52:28.255Z,12.10
2022-12-20T19:54:58.734Z,12.10
2022-12-20T19:57:28.687Z,12.10
2022-12-20T19:59:58.595Z,12.10
2022-12-20T20:02:29.435Z,12.10
2022-12-20T20:05:00.183Z,12.10
2022-12-20T20:07:30.281Z,12.00
2022-12-20T20:10:00.133Z,12.10
2022-12-20T20:12:30.116Z,12.00
2022-12-20T20:15:00.140Z,12.00
2022-12-20T20:17:29.955Z,12.00
2022-12-20T20:19:59.897Z,12.00
2022-12-20T20:22:29.982Z,12.00
2022-12-20T20:24:59.852Z,11.90
2022-12-20T20:27:29.865Z,12.00
2022-12-20T20:29:59.740Z,11.90
2022-12-20T20:32:29.591Z,11.90
2022-12-20T20:34:59.485Z,11.90
2022-12-20T20:37:29.496Z,11.90
2022-12-20T20:39:59.310Z,11.90
2022-12-20T20:42:29.278Z,11.90
2022-12-20T20:44:59.161Z,11.80
2022-12-20T20:47:29.074Z,11.80
2022-12-20T20:49:59.258Z,11.80
2022-12-20T20:52:29.816Z,11.70
2022-12-20T20:55:00.473Z,11.70
2022-12-20T20:57:32.030Z,11.70
2022-12-20T21:00:01.965Z,11.70
2022-12-20T21:02:32.038Z,11.70
2022-12-20T21:06:14.122Z,11.70
2022-12-20T21:07:52.717Z,11.80
2022-12-20T21:10:23.185Z,11.70
2022-12-20T21:12:53.463Z,11.70
2022-12-20T21:15:24.791Z,11.70
2022-12-20T21:17:54.861Z,11.70
2022-12-20T21:20:26.570Z,11.70
2022-12-20T21:22:56.802Z,11.60
2022-12-20T21:25:26.820Z,11.60
2022-12-20T21:27:57.722Z,11.60
2022-12-20T21:30:27.557Z,11.60
2022-12-20T21:32:57.422Z,11.50
2022-12-20T21:35:27.239Z,11.60
2022-12-20T21:37:57.118Z,11.60
2022-12-20T21:40:26.946Z,11.60
2022-12-20T21:42:56.782Z,11.60
2022-12-20T21:45:26.680Z,11.60
2022-12-20T21:48:02.729Z,11.60
2022-12-20T21:50:33.835Z,11.60
2022-12-20T21:53:03.646Z,11.60
2022-12-20T21:55:33.479Z,11.60
2022-12-20T21:58:03.488Z,11.60
2022-12-20T22:00:33.389Z,11.50
2022-12-20T22:03:03.356Z,11.50
2022-12-20T22:05:33.324Z,11.50
2022-12-20T22:08:03.548Z,11.50
2022-12-20T22:10:33.494Z,11.50
2022-12-20T22:13:03.366Z,11.50
2022-12-20T22:15:34.118Z,11.50
2022-12-20T22:18:04.162Z,11.40
2022-12-20T22:20:34.382Z,11.40
2022-12-20T22:23:04.980Z,11.40
2022-12-20T22:25:38.007Z,11.40
2022-12-20T22:28:08.132Z,11.40
2022-12-20T22:30:41.987Z,11.50
2022-12-20T22:33:11.879Z,11.50
2022-12-20T22:35:42.751Z,11.50
2022-12-20T22:38:12.706Z,11.50
2022-12-20T22:40:42.604Z,11.50
2022-12-20T22:43:12.468Z,11.40
2022-12-20T22:45:42.436Z,11.40
2022-12-20T22:48:13.284Z,11.30
2022-12-20T22:50:44.091Z,11.40
2022-12-20T22:53:14.564Z,11.30
2022-12-20T22:55:44.977Z,11.30
2022-12-20T22:58:15.356Z,11.30
2022-12-20T23:00:46.142Z,11.30
2022-12-20T23:03:16.388Z,11.30
2022-12-20T23:06:03.631Z,11.30
2022-12-20T23:08:37.476Z,11.30
2022-12-20T23:11:40.515Z,11.20
2022-12-20T23:14:30.609Z,11.30
2022-12-20T23:17:01.804Z,11.30
2022-12-20T23:19:52.262Z,11.30
2022-12-20T23:22:41.152Z,11.20
2022-12-20T23:25:14.989Z,11.20
2022-12-20T23:27:47.839Z,11.20
2022-12-20T23:30:20.607Z,11.20
2022-12-20T23:32:51.257Z,11.20
2022-12-20T23:35:23.388Z,11.20
2022-12-20T23:37:53.882Z,11.20
2022-12-20T23:40:24.373Z,11.20
2022-12-20T23:42:56.696Z,11.20
2022-12-20T23:45:27.106Z,11.20
2022-12-20T23:47:57.487Z,11.20
2022-12-20T23:50:27.871Z,11.10
2022-12-20T23:52:58.356Z,11.10
2022-12-20T23:55:28.859Z,11.10
2022-12-20T23:57:59.277Z,11.10
